Upstream stations:
Downstream station:
SHEF ID: AMAT2 Canadian Rv nr Amarillo, TX
STATION TYPE:
Regulating: Stage = 13.00, Flow = 87096
PRECIP STAGE RIV-FLOW WTR-TEMP CONDUCT BAT-LOAD
in ft cfs F umho/cm volt
Ccp-Rev Ccp-Rev Ccp-Rev Ccp-Rev Ccp-Rev Ccp-Rev
(US/Central)
03/17 00:00 ---- 1.21 42 53.94 1 11.93
03/17 01:00 ---- 1.23 44 52.77 1 11.93
03/17 02:00 ---- 1.21 42 52.02 1 11.93
03/17 03:00 ---- 1.22 43 51.28 1 11.93
03/17 04:00 ---- 1.23 44 50.43 1 11.86
03/17 05:00 ---- 1.25 47 49.17 1 11.86
03/17 06:00 ---- 1.23 44 47.62 1 11.86
03/17 07:00 ---- 1.31 55 45.27 1 11.77
03/17 08:00 ---- 1.30 53 43.45 1 11.77
03/17 09:00 ---- 1.32 56 42.10 1 11.77
03/17 10:00 ---- 1.33 58 39.97 1 11.77
03/17 11:00 ---- 1.34 59 38.37 1 11.77
03/17 12:00 ---- 1.36 62 38.30 1 11.86
03/17 13:00 ---- 1.36 62 39.13 1 11.93
03/17 14:00 ---- 1.34 59 41.07 1 12.01
03/17 15:00 ---- 1.34 59 43.25 1 12.09
03/17 16:00 ---- 1.32 56 45.77 1 12.01
03/17 17:00 ---- 1.31 55 47.28 1 12.01
03/17 18:00 ---- 1.31 55 47.84 1 11.93
03/17 19:00 ---- 1.30 53 47.97 1 11.93
03/17 20:00 ---- 1.32 56 47.57 1 11.93
03/17 21:00 ---- 1.31 55 46.69 1 11.86
03/17 22:00 ---- 1.31 55 45.84 1 11.86
03/17 23:00 ---- 1.31 55 45.12 1 11.86